NorthLands Webcam more information NorthLands Webcam


BloomSky more information BloomSky


Thunder radar more information blitzortung!


Rain radar more information rain snow radar


Visit our other weather sites:

Template documentation
and downloads

And another site



Nearby METAR Reports

   
KAVP - Albrightsville, PA
Updated: Jan 19 2019 10:54 am
Overcast  
Overcast  
   Wind: ESE 9.2 mph
Wind: ESE 9.2 mph
Temperature: 32°F
Wind Chill: 24.8°F
Dew Point: 17.6°F
Humidity: 55%
Barometer: 30.14 inHg
Clouds: Overcast
Visibility: 10 mi
Cloud details: Overcast 3100 ft
KAVP 191654Z 12008KT 10SM OVC031 00/M08 A3014 RMK AO2 PRESFR SLP216 T00001078
KIWA - Apache Junction, AZ
Updated: Jan 19 2019 10:50 am
Few Clouds  
Few Clouds  
   Wind: NNE 3.5 mph
Wind: NNE 3.5 mph
Temperature: 51.8°F
Dew Point: 37.4°F
Humidity: 58%
Barometer: 30.33 inHg
Clouds: Few Clouds
Visibility: 45 mi
Cloud details: Few Clouds 25000 ft
KIWA 191650Z 03003KT 45SM FEW250 11/03 A3033
KPKB - Blue Rock, OH
Updated: Jan 19 2019 10:53 am
Overcast  
Overcast  
   Wind: East 6.9 mph
Wind: East 6.9 mph
Temperature: 37.4°F
Wind Chill: 32°F
Dew Point: 30.2°F
Humidity: 75%
Barometer: 29.86 inHg
Clouds: Overcast
Visibility: 10 mi
Cloud details: Partly Cloudy 6000 ft,
Mostly Cloudy 7500 ft,
Overcast 9000 ft
KPKB 191653Z 08006KT 10SM SCT060 BKN075 OVC090 03/M01 A2986 RMK AO2 SLP115 T00331006
KHVN - Branford, CT
Updated: Jan 19 2019 10:53 am
Overcast  
Overcast  
   Wind: East 9.2 mph
Wind: East 9.2 mph
Temperature: 37.4°F
Wind Chill: 30.2°F
Dew Point: 21.2°F
Humidity: 52%
Barometer: 30.24 inHg
Clouds: Overcast
Visibility: 10 mi
Cloud details: Overcast 4800 ft
KHVN 191653Z 08008KT 10SM OVC048 03/M06 A3024 RMK AO2 SLP241 T00331061
KPHX - Carefree, AZ
Updated: Jan 19 2019 10:51 am
Few Clouds  
Few Clouds  
   Wind: varies 5.8 mph
Wind: varies 5.8 mph
Temperature: 60.8°F
Dew Point: 28.4°F
Humidity: 29%
Barometer: 30.31 inHg
Clouds: Few Clouds
Visibility: 10 mi
Cloud details: Few Clouds 25000 ft
KPHX 191651Z VRB05KT 10SM FEW250 16/M02 A3031 RMK AO2 SLP257 T01561022 $
 

Script developed by  Saratoga-weather.org Adapted for the template by  Weerstation Leuven

You find our weather info also at:

WeatherCloud

Citizen Weather Observer Program (CWOP)

HAMweather, WeatherForYou, PWS Weather

Equipment we use:

Weather-program
Weather Display

Weather Display